Time;durP1;ratioP1;P1;durP2;ratioP2;P2;SDS_P1;SDS_P2;PMS_P1;PMS_P2;Temp;Humidity;BMP_temperature;BMP_pressure;BME280_temperature;BME280_humidity;BME280_pressure;Samples;Min_cycle;Max_cycle;Signal;HPM_P1;HPM_P2
2022/06/02 00:00:43;;;;;;;5.77;5.27;;;9.60;99.90;;;;;;5072590;28;20247;-64
2022/06/02 00:03:24;;;;;;;5.23;4.83;;;9.60;99.90;;;;;;5054993;28;20322;-64
2022/06/02 00:06:14;;;;;;;5.47;5.07;;;9.60;99.90;;;;;;5055149;28;20689;-64
2022/06/02 00:08:56;;;;;;;5.90;5.40;;;9.60;99.90;;;;;;5047091;28;20216;-64
2022/06/02 00:11:38;;;;;;;6.23;5.03;;;9.60;99.90;;;;;;5055527;28;20688;-64
2022/06/02 00:14:11;;;;;;;6.00;5.50;;;9.50;99.90;;;;;;5055344;28;20322;-64
2022/06/02 00:16:52;;;;;;;6.43;5.83;;;9.50;99.90;;;;;;5055192;28;20231;-64
2022/06/02 00:19:31;;;;;;;6.27;5.67;;;9.50;99.90;;;;;;5055024;28;20787;-64
2022/06/02 00:22:09;;;;;;;5.90;5.40;;;9.40;99.90;;;;;;5055001;28;20323;-64
2022/06/02 00:24:43;;;;;;;5.83;5.23;;;9.40;99.90;;;;;;5054907;28;20677;-64
2022/06/02 00:27:22;;;;;;;6.03;5.53;;;9.40;99.90;;;;;;5063777;28;20267;-64
2022/06/02 00:29:59;;;;;;;6.13;5.63;;;9.40;99.90;;;;;;5073211;28;20224;-64
2022/06/02 00:32:40;;;;;;;5.60;5.10;;;9.40;99.90;;;;;;5061127;28;20232;-64
2022/06/02 00:35:21;;;;;;;6.20;5.60;;;9.40;99.90;;;;;;5054816;28;20247;-64
2022/06/02 00:37:53;;;;;;;6.23;5.63;;;9.40;99.90;;;;;;5047797;28;20229;-64
2022/06/02 00:40:24;;;;;;;6.53;5.40;;;9.40;99.90;;;;;;5034573;28;20273;-64
2022/06/02 00:43:14;;;;;;;5.97;5.47;;;9.30;99.90;;;;;;5063022;28;20238;-64
2022/06/02 00:45:44;;;;;;;6.63;6.03;;;9.30;99.90;;;;;;5034743;28;20249;-64
2022/06/02 00:48:21;;;;;;;5.83;5.33;;;9.30;99.90;;;;;;5037052;28;20220;-64
2022/06/02 00:51:03;;;;;;;6.33;5.73;;;9.30;99.90;;;;;;5074637;28;20239;-64
2022/06/02 00:53:43;;;;;;;6.23;5.63;;;9.30;99.90;;;;;;5071856;28;20713;-63
2022/06/02 00:59:23;;;;;;;6.20;5.70;;;9.20;99.90;;;;;;5062222;28;20229;-64
2022/06/02 01:01:52;;;;;;;7.40;6.13;;;9.30;99.90;;;;;;5061284;28;20724;-64
2022/06/02 01:04:20;;;;;;;6.90;6.27;;;9.30;99.90;;;;;;5073431;28;20215;-63
2022/06/02 01:07:04;;;;;;;6.30;5.70;;;9.30;99.90;;;;;;5055058;28;20260;-63
2022/06/02 01:09:52;;;;;;;6.30;5.70;;;9.20;99.90;;;;;;5053768;28;20236;-63
2022/06/02 01:12:42;;;;;;;7.07;6.37;;;9.20;99.90;;;;;;5053698;28;20243;-64
2022/06/02 01:15:26;;;;;;;6.83;6.17;;;9.20;99.90;;;;;;5053927;28;20262;-64
2022/06/02 01:18:06;;;;;;;7.97;6.13;;;9.20;99.90;;;;;;5062171;28;20716;-64
2022/06/02 01:20:43;;;;;;;7.63;6.93;;;9.20;99.90;;;;;;5066355;28;21610;-64
2022/06/02 01:23:38;;;;;;;7.00;6.40;;;9.20;99.90;;;;;;5053240;28;20226;-64
2022/06/02 01:26:22;;;;;;;8.60;6.60;;;9.20;99.90;;;;;;5049186;28;20240;-63
2022/06/02 01:29:07;;;;;;;7.23;6.53;;;9.10;99.90;;;;;;5053986;28;20319;-63
2022/06/02 01:31:44;;;;;;;6.97;6.07;;;9.10;99.90;;;;;;5053812;28;20665;-64
2022/06/02 01:34:29;;;;;;;7.77;6.97;;;9.10;99.90;;;;;;5053138;28;20331;-64
2022/06/02 01:37:04;;;;;;;7.30;6.63;;;9.00;99.90;;;;;;5047722;28;20631;-63
2022/06/02 01:39:47;;;;;;;7.10;6.40;;;9.10;99.90;;;;;;5053564;28;20654;-63
2022/06/02 01:42:28;;;;;;;7.67;6.90;;;9.00;99.90;;;;;;5053499;28;20256;-64
2022/06/02 01:45:05;;;;;;;7.70;7.07;;;9.00;99.90;;;;;;5047207;28;20227;-64
2022/06/02 01:47:37;;;;;;;8.27;7.47;;;9.00;99.90;;;;;;5053462;28;20250;-63
2022/06/02 01:50:34;;;;;;;8.60;7.77;;;8.90;99.90;;;;;;5053514;28;20562;-63
2022/06/02 01:53:10;;;;;;;7.77;6.97;;;9.00;99.90;;;;;;5053544;28;20268;-63
2022/06/02 01:56:02;;;;;;;9.43;7.50;;;9.00;99.90;;;;;;5053380;28;20224;-63
2022/06/02 01:58:53;;;;;;;8.80;7.90;;;8.90;99.90;;;;;;5051652;28;20326;-63
2022/06/02 02:01:32;;;;;;;8.63;7.73;;;8.90;99.90;;;;;;5053246;28;20242;-63
2022/06/02 02:04:18;;;;;;;8.57;7.77;;;8.90;99.90;;;;;;5052723;28;20260;-64
2022/06/02 02:06:56;;;;;;;8.40;7.27;;;8.90;99.90;;;;;;5052937;28;20224;-63
2022/06/02 02:09:33;;;;;;;8.57;7.70;;;8.90;99.90;;;;;;5052609;28;20314;-63
2022/06/02 02:12:01;;;;;;;8.57;7.67;;;8.80;99.90;;;;;;5052857;28;20223;-63
2022/06/02 02:14:47;;;;;;;8.73;7.87;;;8.80;99.90;;;;;;5052024;28;20308;-63
2022/06/02 02:17:28;;;;;;;9.30;8.23;;;8.80;99.90;;;;;;5053267;28;20686;-63
2022/06/02 02:20:09;;;;;;;9.37;8.40;;;8.80;99.90;;;;;;5052661;28;20263;-63
2022/06/02 02:22:47;;;;;;;10.83;9.70;;;8.80;99.90;;;;;;5053108;28;20227;-63
2022/06/02 02:25:22;;;;;;;10.60;9.50;;;8.80;99.90;;;;;;5052716;28;20309;-63
2022/06/02 02:28:05;;;;;;;11.07;9.63;;;8.80;99.90;;;;;;5032868;28;20714;-63
2022/06/02 02:30:48;;;;;;;11.47;9.53;;;8.80;99.90;;;;;;5032580;28;20486;-63
2022/06/02 02:33:27;;;;;;;10.83;9.83;;;8.80;99.90;;;;;;5052030;28;20239;-63
2022/06/02 02:36:03;;;;;;;12.07;10.10;;;8.80;99.90;;;;;;5052763;28;20744;-63
2022/06/02 02:38:43;;;;;;;10.83;9.73;;;8.80;99.90;;;;;;5052294;28;20718;-63
2022/06/02 02:41:17;;;;;;;11.67;10.47;;;8.80;99.90;;;;;;5052680;28;20335;-63
2022/06/02 02:43:53;;;;;;;11.47;10.27;;;8.80;99.90;;;;;;5045111;28;20683;-63
2022/06/02 02:46:35;;;;;;;12.97;11.57;;;8.70;99.90;;;;;;5052362;28;20300;-63
2022/06/02 02:49:12;;;;;;;11.97;10.73;;;8.80;99.90;;;;;;5032776;28;20232;-63
2022/06/02 02:51:48;;;;;;;11.93;10.40;;;8.70;99.90;;;;;;5032742;28;20319;-63
2022/06/02 02:54:24;;;;;;;13.30;11.90;;;8.70;99.90;;;;;;5041279;28;20769;-63
2022/06/02 02:57:00;;;;;;;14.40;12.07;;;8.70;99.90;;;;;;5052270;28;20308;-63
2022/06/02 02:59:43;;;;;;;14.27;11.50;;;8.70;99.90;;;;;;5052438;28;20319;-63
2022/06/02 03:02:20;;;;;;;14.10;12.00;;;8.70;99.90;;;;;;5069706;28;20750;-64
2022/06/02 03:04:55;;;;;;;13.70;12.30;;;8.70;99.90;;;;;;5069733;28;20690;-63
2022/06/02 03:07:24;;;;;;;14.23;12.73;;;8.70;99.90;;;;;;5052202;28;20311;-63
2022/06/02 03:10:02;;;;;;;13.57;12.17;;;8.70;99.90;;;;;;5064038;28;20259;-63
2022/06/02 03:12:48;;;;;;;16.20;13.20;;;8.70;99.90;;;;;;5056097;28;20261;-63
2022/06/02 03:15:21;;;;;;;15.30;13.70;;;8.70;99.90;;;;;;5051958;28;20310;-63
2022/06/02 03:18:07;;;;;;;14.80;13.17;;;8.70;99.90;;;;;;5052271;28;20220;-63
2022/06/02 03:20:47;;;;;;;16.57;13.30;;;8.70;99.90;;;;;;5052041;28;20270;-63
2022/06/02 03:23:34;;;;;;;15.83;13.67;;;8.70;99.90;;;;;;5052216;28;20777;-64
2022/06/02 03:26:07;;;;;;;14.70;13.20;;;8.60;99.90;;;;;;5053039;28;20286;-63
2022/06/02 03:28:47;;;;;;;15.60;14.00;;;8.70;99.90;;;;;;5056171;28;20737;-63
2022/06/02 03:31:29;;;;;;;15.30;13.70;;;8.70;99.90;;;;;;5055187;28;20262;-63
2022/06/02 03:34:08;;;;;;;15.13;13.50;;;8.70;99.90;;;;;;5055696;28;20235;-63
2022/06/02 03:37:07;;;;;;;14.87;13.27;;;8.80;99.90;;;;;;5055837;28;20326;-63
2022/06/02 03:39:48;;;;;;;16.10;13.90;;;8.80;99.90;;;;;;5064756;28;20277;-63
2022/06/02 03:42:31;;;;;;;14.27;12.20;;;8.80;99.90;;;;;;5060520;28;20225;-63
2022/06/02 03:45:23;;;;;;;14.73;13.07;;;8.80;99.90;;;;;;5055580;28;20227;-63
2022/06/02 03:48:29;;;;;;;14.97;13.30;;;8.90;99.90;;;;;;5055821;28;20261;-63
2022/06/02 03:51:17;;;;;;;15.13;13.27;;;8.90;99.90;;;;;;5055481;28;20236;-63
2022/06/02 03:53:59;;;;;;;14.27;12.87;;;8.90;99.90;;;;;;5062342;28;20285;-63
2022/06/02 03:56:45;;;;;;;15.57;13.97;;;9.00;99.90;;;;;;5075596;28;20721;-63
2022/06/02 03:59:25;;;;;;;14.03;12.63;;;9.00;99.90;;;;;;5075148;28;20280;-63
2022/06/02 04:02:00;;;;;;;15.67;13.93;;;9.10;99.90;;;;;;5075350;28;20223;-63
2022/06/02 04:04:39;;;;;;;16.73;13.57;;;9.10;99.90;;;;;;5071061;28;20655;-63
2022/06/02 04:07:27;;;;;;;14.70;13.10;;;9.10;99.90;;;;;;5050479;28;20320;-63
2022/06/02 04:10:03;;;;;;;14.27;12.80;;;9.10;99.90;;;;;;5050440;28;20275;-63
2022/06/02 04:16:18;;;;;;;13.53;12.13;;;9.20;99.90;;;;;;5035192;28;20323;-63
2022/06/02 04:19:01;;;;;;;14.87;12.73;;;9.20;99.90;;;;;;5034985;28;20315;-63
2022/06/02 04:21:37;;;;;;;13.90;12.40;;;9.20;99.90;;;;;;5034938;28;20274;-63
2022/06/02 04:24:20;;;;;;;17.57;13.87;;;9.30;99.90;;;;;;5053238;28;20234;-63
2022/06/02 04:27:06;;;;;;;16.03;12.97;;;9.30;99.90;;;;;;5074910;28;20224;-63
2022/06/02 04:30:00;;;;;;;14.97;13.37;;;9.30;99.90;;;;;;5074730;28;20306;-63
2022/06/02 04:32:40;;;;;;;16.90;13.57;;;9.40;99.90;;;;;;5052428;28;20656;-63
2022/06/02 04:35:21;;;;;;;13.83;12.43;;;9.50;99.90;;;;;;5055058;28;20232;-63
2022/06/02 04:37:58;;;;;;;14.33;12.07;;;9.60;99.90;;;;;;5046666;28;20293;-64
2022/06/02 04:40:44;;;;;;;14.27;12.40;;;9.70;99.90;;;;;;5034929;28;20286;-63
2022/06/02 04:43:22;;;;;;;12.90;11.53;;;9.70;99.90;;;;;;5050897;28;20319;-63
2022/06/02 04:46:07;;;;;;;13.10;11.80;;;9.70;99.90;;;;;;5034983;28;20325;-63
2022/06/02 04:48:44;;;;;;;13.27;11.60;;;9.70;99.90;;;;;;5045826;28;20233;-63
2022/06/02 04:51:21;;;;;;;13.70;11.57;;;9.80;99.90;;;;;;5053779;28;20221;-63
2022/06/02 04:53:57;;;;;;;11.80;10.57;;;9.80;99.90;;;;;;5049116;28;20224;-63
2022/06/02 04:56:32;;;;;;;12.23;10.33;;;9.90;99.90;;;;;;5054060;28;20315;-63
2022/06/02 04:59:10;;;;;;;13.27;10.97;;;9.90;99.90;;;;;;5053816;28;20623;-63
2022/06/02 05:02:00;;;;;;;15.03;11.60;;;10.00;99.90;;;;;;5053695;28;20216;-64
2022/06/02 05:04:42;;;;;;;11.93;10.73;;;10.00;99.90;;;;;;5054299;28;20237;-63
2022/06/02 05:07:25;;;;;;;12.83;10.60;;;10.00;99.90;;;;;;5049775;28;20259;-63
2022/06/02 05:10:06;;;;;;;11.47;10.13;;;10.10;99.90;;;;;;5050052;28;20259;-63
2022/06/02 05:12:51;;;;;;;14.10;10.83;;;10.10;99.90;;;;;;5052949;28;20331;-63
2022/06/02 05:15:44;;;;;;;11.80;10.57;;;10.20;99.90;;;;;;5053211;28;20226;-63
2022/06/02 05:18:35;;;;;;;11.93;9.90;;;10.20;99.90;;;;;;5050967;28;20224;-64
2022/06/02 05:21:15;;;;;;;11.00;9.20;;;10.20;99.90;;;;;;5053601;28;20256;-64
2022/06/02 05:24:02;;;;;;;10.40;9.27;;;10.20;99.90;;;;;;5049962;28;20229;-63
2022/06/02 05:26:53;;;;;;;10.70;9.60;;;10.20;99.90;;;;;;5050466;28;20257;-64
2022/06/02 05:29:45;;;;;;;9.80;8.80;;;10.20;99.90;;;;;;5017641;28;20311;-64
2022/06/02 05:32:31;;;;;;;10.00;8.93;;;10.20;99.90;;;;;;5048316;28;20229;-63
2022/06/02 05:35:28;;;;;;;10.00;8.97;;;10.20;99.90;;;;;;5049823;28;20231;-64
2022/06/02 05:38:11;;;;;;;9.30;8.27;;;10.20;99.90;;;;;;5051925;28;20283;-64
2022/06/02 05:40:42;;;;;;;10.60;9.50;;;10.30;99.90;;;;;;5052645;28;20253;-64
2022/06/02 05:43:28;;;;;;;10.47;9.37;;;10.30;99.90;;;;;;5052993;28;20320;-64
2022/06/02 05:46:07;;;;;;;9.93;8.93;;;10.40;99.90;;;;;;5038712;28;20725;-64
2022/06/02 05:48:47;;;;;;;10.17;8.80;;;10.40;99.90;;;;;;5052162;28;20229;-64
2022/06/02 05:51:26;;;;;;;10.43;9.33;;;10.40;99.90;;;;;;5052439;28;20724;-64
2022/06/02 05:54:06;;;;;;;10.83;9.73;;;10.40;99.90;;;;;;5053373;28;20240;-64
2022/06/02 05:56:45;;;;;;;10.70;9.60;;;10.50;99.90;;;;;;5052089;28;20350;-64
2022/06/02 05:59:36;;;;;;;9.70;8.80;;;10.60;99.90;;;;;;5052968;28;20229;-64
2022/06/02 06:02:24;;;;;;;9.00;8.10;;;10.60;99.90;;;;;;5051868;28;20346;-64
2022/06/02 06:05:08;;;;;;;11.17;8.90;;;10.70;99.90;;;;;;5052902;28;20264;-64
2022/06/02 06:08:01;;;;;;;9.80;8.80;;;10.80;99.90;;;;;;5051802;28;20232;-64
2022/06/02 06:10:38;;;;;;;10.77;9.23;;;10.90;99.90;;;;;;5050876;28;20237;-65
2022/06/02 06:13:23;;;;;;;11.07;9.13;;;11.10;99.90;;;;;;5049177;28;20224;-65
2022/06/02 06:15:58;;;;;;;8.97;8.03;;;11.10;99.90;;;;;;5045430;28;20559;-65
2022/06/02 06:18:46;;;;;;;9.80;7.40;;;11.20;99.90;;;;;;5052460;28;20302;-64
2022/06/02 06:21:24;;;;;;;8.90;8.00;;;11.30;99.90;;;;;;5051790;28;20348;-64
2022/06/02 06:24:44;;;;;;;9.80;8.80;;;11.30;99.90;;;;;;5049496;28;20242;-65
2022/06/02 06:27:22;;;;;;;9.07;7.57;;;11.30;99.90;;;;;;5024373;28;20316;-64
2022/06/02 06:30:02;;;;;;;8.77;7.97;;;11.50;99.90;;;;;;5051243;28;20230;-65
2022/06/02 06:32:38;;;;;;;8.57;7.77;;;11.70;99.90;;;;;;5051103;28;20237;-65
2022/06/02 06:35:24;;;;;;;8.03;7.20;;;11.70;99.90;;;;;;5052503;28;20311;-65
2022/06/02 06:38:08;;;;;;;8.13;7.33;;;11.80;99.90;;;;;;5051077;28;20759;-65
2022/06/02 06:40:50;;;;;;;8.60;7.30;;;11.90;99.90;;;;;;5051253;28;20281;-65
2022/06/02 06:43:34;;;;;;;7.80;7.00;;;12.00;99.90;;;;;;5050159;28;20655;-65
2022/06/02 06:46:10;;;;;;;7.80;7.00;;;12.00;99.90;;;;;;5051459;28;20734;-65
2022/06/02 06:48:43;;;;;;;7.93;7.13;;;12.10;99.90;;;;;;5050906;28;20226;-65
2022/06/02 06:51:21;;;;;;;7.17;6.40;;;12.30;99.90;;;;;;5050582;28;20636;-65
2022/06/02 06:54:01;;;;;;;8.63;6.50;;;12.50;99.90;;;;;;5044037;28;20234;-65
2022/06/02 06:56:34;;;;;;;6.77;6.13;;;12.60;99.90;;;;;;5049328;28;20230;-65
2022/06/02 06:59:22;;;;;;;7.73;5.90;;;12.70;99.90;;;;;;5050973;28;20586;-65
2022/06/02 07:01:59;;;;;;;6.33;5.50;;;12.70;99.90;;;;;;5050712;28;20257;-65
2022/06/02 07:04:40;;;;;;;9.87;5.70;;;12.80;99.90;;;;;;5055717;28;20267;-65
2022/06/02 07:07:15;;;;;;;5.77;5.17;;;12.90;99.90;;;;;;5051239;28;20234;-65
2022/06/02 07:09:52;;;;;;;6.57;4.90;;;13.10;99.90;;;;;;5050923;28;20249;-65
2022/06/02 07:15:19;;;;;;;7.00;4.80;;;13.30;99.90;;;;;;5056130;28;20234;-65
2022/06/02 07:17:55;;;;;;;6.97;4.90;;;13.60;99.90;;;;;;5055685;28;20719;-65
2022/06/02 07:20:49;;;;;;;6.77;4.70;;;14.00;99.90;;;;;;5055185;28;20230;-65
2022/06/02 07:23:27;;;;;;;5.47;4.53;;;14.30;99.90;;;;;;5051035;28;20230;-65
2022/06/02 07:26:06;;;;;;;5.87;4.23;;;14.40;99.90;;;;;;5055267;28;20728;-65
2022/06/02 07:28:48;;;;;;;7.13;4.30;;;14.50;99.90;;;;;;5055929;28;20699;-65
2022/06/02 07:31:31;;;;;;;7.27;4.03;;;14.60;99.90;;;;;;5054631;28;20298;-65
2022/06/02 07:34:15;;;;;;;5.23;3.87;;;14.70;99.90;;;;;;5054968;28;20311;-65
2022/06/02 07:37:04;;;;;;;6.53;4.07;;;14.80;99.90;;;;;;5054986;28;20227;-65
2022/06/02 07:40:07;;;;;;;5.70;3.70;;;14.90;99.90;;;;;;5055446;28;20679;-65
2022/06/02 07:42:59;;;;;;;4.03;3.57;;;15.40;99.90;;;;;;5054877;28;20234;-65
2022/06/02 07:45:35;;;;;;;4.67;3.60;;;15.90;99.90;;;;;;5046363;28;20239;-65
2022/06/02 07:48:50;;;;;;;3.50;3.20;;;16.60;99.90;;;;;;5055034;28;20240;-65
2022/06/02 07:51:27;;;;;;;5.10;3.30;;;17.20;99.90;;;;;;5054495;28;20235;-65
2022/06/02 07:54:18;;;;;;;3.60;3.00;;;17.40;99.90;;;;;;5053555;28;20236;-65
2022/06/02 07:56:58;;;;;;;4.23;3.80;;;17.20;99.90;;;;;;5050853;28;20216;-65
2022/06/02 07:59:42;;;;;;;3.90;3.40;;;16.80;99.90;;;;;;5053929;28;20232;-65
2022/06/02 08:02:37;;;;;;;5.67;3.50;;;16.30;99.90;;;;;;5053097;28;20702;-65
2022/06/02 08:05:23;;;;;;;5.60;3.40;;;16.00;99.90;;;;;;5049229;28;20236;-65
2022/06/02 08:07:54;;;;;;;4.70;3.23;;;15.70;99.90;;;;;;5053850;28;20742;-65
2022/06/02 08:10:37;;;;;;;5.07;3.00;;;15.60;99.90;;;;;;5052086;28;20715;-64
2022/06/02 08:13:27;;;;;;;6.37;3.17;;;15.40;99.90;;;;;;5052882;28;20638;-65
2022/06/02 08:16:01;;;;;;;6.30;2.97;;;15.10;99.90;;;;;;5050549;28;21032;-65
2022/06/02 08:18:46;;;;;;;3.43;2.70;;;14.90;99.90;;;;;;5053036;28;20326;-65
2022/06/02 08:21:26;;;;;;;4.10;2.70;;;14.80;99.90;;;;;;5054000;28;20231;-65
2022/06/02 08:24:23;;;;;;;6.97;2.93;;;14.90;99.90;;;;;;5048119;28;20691;-66
2022/06/02 08:27:03;;;;;;;5.30;2.90;;;14.80;99.90;;;;;;5053457;28;20691;-65
2022/06/02 08:29:46;;;;;;;4.90;2.80;;;14.80;99.90;;;;;;5052637;28;20327;-66
2022/06/02 08:32:31;;;;;;;4.80;2.80;;;14.90;99.90;;;;;;5053377;28;20231;-65
2022/06/02 08:35:15;;;;;;;4.17;2.80;;;15.00;99.90;;;;;;5053083;28;20285;-65
2022/06/02 08:38:03;;;;;;;4.03;2.50;;;15.00;99.90;;;;;;5053462;28;20687;-65
2022/06/02 08:44:23;;;;;;;3.03;2.30;;;15.00;99.90;;;;;;5046230;28;20580;-66
2022/06/02 08:47:19;;;;;;;3.57;2.80;;;15.00;99.90;;;;;;5052700;28;20228;-66
2022/06/02 08:50:16;;;;;;;4.00;3.10;;;15.00;99.90;;;;;;5046637;28;20262;-66
2022/06/02 08:53:26;;;;;;;5.70;2.67;;;14.90;99.90;;;;;;5054137;28;20232;-66
2022/06/02 08:56:20;;;;;;;2.90;1.97;;;14.80;99.90;;;;;;5054462;28;20315;-66
2022/06/02 08:59:17;;;;;;;4.73;2.63;;;14.60;99.90;;;;;;5047367;28;20246;-66
2022/06/02 09:02:11;;;;;;;4.33;2.53;;;14.40;99.90;;;;;;5050150;28;20310;-66
2022/06/02 09:05:08;;;;;;;3.43;2.30;;;14.30;99.90;;;;;;5055151;28;20652;-66
2022/06/02 09:08:04;;;;;;;6.23;2.40;;;14.30;99.90;;;;;;5057835;28;20236;-66
2022/06/02 09:11:01;;;;;;;3.30;2.10;;;14.40;99.90;;;;;;5052679;28;20228;-66
2022/06/02 09:13:54;;;;;;;4.63;2.23;;;14.50;99.90;;;;;;5052118;28;20285;-66
2022/06/02 09:16:25;;;;;;;4.53;2.50;;;14.60;99.90;;;;;;5034451;28;20263;-66
2022/06/02 09:19:26;;;;;;;4.83;2.00;;;14.70;99.90;;;;;;5052488;28;20243;-66
2022/06/02 09:22:13;;;;;;;9.33;2.60;;;14.70;99.90;;;;;;5051877;28;20231;-66
2022/06/02 09:24:46;;;;;;;5.73;2.90;;;14.80;99.90;;;;;;5053516;28;20251;-66
2022/06/02 09:27:55;;;;;;;8.43;2.80;;;14.80;99.90;;;;;;5054132;28;20584;-66
2022/06/02 09:30:39;;;;;;;4.17;2.10;;;14.70;99.90;;;;;;5043464;28;20699;-66
2022/06/02 09:33:37;;;;;;;4.27;2.30;;;14.70;99.90;;;;;;5043815;28;20251;-66
2022/06/02 09:36:45;;;;;;;4.53;2.17;;;14.60;99.90;;;;;;5032979;28;20293;-66
2022/06/02 09:39:30;;;;;;;7.10;2.30;;;14.40;99.90;;;;;;4968944;28;20730;-66
2022/06/02 09:42:15;;;;;;;5.43;2.50;;;14.50;99.90;;;;;;5026369;28;20651;-66
2022/06/02 09:44:54;;;;;;;6.23;2.60;;;14.50;99.90;;;;;;5025872;28;20320;-66
2022/06/02 09:47:47;;;;;;;9.47;3.10;;;14.60;99.90;;;;;;5032491;28;20724;-66
2022/06/02 09:50:32;;;;;;;11.33;3.50;;;14.80;99.90;;;;;;5030897;28;20262;-66
2022/06/02 09:53:23;;;;;;;10.37;2.90;;;15.00;99.90;;;;;;5033519;28;20255;-66
2022/06/02 09:56:06;;;;;;;12.03;3.27;;;15.10;99.90;;;;;;5031920;28;20319;-66
2022/06/02 09:58:51;;;;;;;8.27;2.60;;;15.20;99.90;;;;;;5032316;28;20232;-66
2022/06/02 10:01:37;;;;;;;4.67;2.40;;;15.20;99.90;;;;;;5032729;28;20235;-66
2022/06/02 10:04:38;;;;;;;8.03;2.80;;;15.30;99.90;;;;;;5032941;28;20231;-66
2022/06/02 10:07:36;;;;;;;3.87;2.33;;;15.20;99.90;;;;;;5028621;28;20320;-66
2022/06/02 10:10:39;;;;;;;4.00;2.80;;;15.00;99.90;;;;;;5030611;28;20263;-66
2022/06/02 10:13:53;;;;;;;2.97;2.10;;;14.70;99.90;;;;;;5010763;28;20588;-66
2022/06/02 10:16:45;;;;;;;5.73;2.63;;;14.50;99.90;;;;;;5029429;28;20228;-65
2022/06/02 10:19:50;;;;;;;4.30;2.30;;;14.30;99.90;;;;;;5031873;28;20286;-65
2022/06/02 10:22:24;;;;;;;5.03;2.43;;;14.20;99.90;;;;;;5015569;28;20220;-65
2022/06/02 10:25:23;;;;;;;2.53;2.33;;;14.20;99.90;;;;;;5018704;28;20232;-65
2022/06/02 10:28:17;;;;;;;3.17;2.20;;;14.30;99.90;;;;;;5020949;28;20236;-65
2022/06/02 10:31:22;;;;;;;4.27;2.50;;;14.40;99.90;;;;;;5017202;28;20708;-66
2022/06/02 10:34:32;;;;;;;3.47;2.63;;;14.40;99.90;;;;;;5027047;28;20598;-65
2022/06/02 10:37:29;;;;;;;3.97;2.43;;;14.40;99.90;;;;;;5035762;28;20741;-65
2022/06/02 10:40:27;;;;;;;6.23;2.80;;;14.30;99.90;;;;;;5020168;28;20301;-65
2022/06/02 10:43:44;;;;;;;8.20;3.17;;;14.20;99.90;;;;;;5031161;28;20792;-65
2022/06/02 10:46:48;;;;;;;6.43;2.70;;;14.10;99.90;;;;;;5036322;28;20300;-65
2022/06/02 10:49:26;;;;;;;12.90;3.47;;;14.00;99.90;;;;;;5034351;28;20232;-65
2022/06/02 10:52:38;;;;;;;7.20;3.30;;;14.10;99.90;;;;;;5032985;28;20228;-65
2022/06/02 10:55:46;;;;;;;9.27;3.03;;;14.20;99.90;;;;;;5040795;28;20707;-65
2022/06/02 10:58:41;;;;;;;11.20;3.10;;;14.40;99.90;;;;;;5041804;28;20262;-65
2022/06/02 11:01:42;;;;;;;7.73;3.07;;;14.50;99.90;;;;;;5038051;28;20323;-65
2022/06/02 11:04:46;;;;;;;9.47;3.13;;;14.60;99.90;;;;;;5007565;28;20239;-65
2022/06/02 11:07:51;;;;;;;5.33;2.40;;;14.60;99.90;;;;;;5021720;28;20247;-66
2022/06/02 11:10:29;;;;;;;5.50;2.67;;;14.50;99.90;;;;;;5022631;28;20315;-65
2022/06/02 11:13:39;;;;;;;5.03;2.80;;;14.40;99.90;;;;;;5021681;28;20323;-66
2022/06/02 11:16:46;;;;;;;4.70;2.43;;;14.40;99.90;;;;;;5020962;28;20225;-66
2022/06/02 11:19:49;;;;;;;3.33;2.60;;;14.60;99.90;;;;;;5020601;28;20267;-65
2022/06/02 11:22:36;;;;;;;4.90;2.47;;;14.90;99.90;;;;;;5020913;28;20271;-65
2022/06/02 11:25:50;;;;;;;3.43;2.47;;;15.00;99.90;;;;;;5020825;28;20311;-66
2022/06/02 11:28:52;;;;;;;4.87;2.40;;;15.10;99.90;;;;;;5021827;28;20220;-66
2022/06/02 11:32:04;;;;;;;7.20;2.50;;;15.00;99.90;;;;;;5022433;28;20243;-66
2022/06/02 11:35:06;;;;;;;4.33;1.90;;;15.00;99.90;;;;;;5031475;28;20283;-66
2022/06/02 11:38:12;;;;;;;3.50;2.07;;;14.90;99.90;;;;;;5038825;28;20232;-66
2022/06/02 11:41:11;;;;;;;2.90;2.03;;;15.00;99.90;;;;;;5038459;28;20815;-65
2022/06/02 11:43:52;;;;;;;4.23;2.10;;;15.30;99.90;;;;;;5039052;28;20297;-65
2022/06/02 11:46:53;;;;;;;6.47;2.37;;;15.50;99.90;;;;;;5040294;28;20224;-66
2022/06/02 11:50:11;;;;;;;5.07;2.40;;;15.70;99.90;;;;;;5044064;28;20231;-65
2022/06/02 11:53:17;;;;;;;5.57;2.20;;;15.70;99.90;;;;;;5043050;28;20243;-65
2022/06/02 11:55:54;;;;;;;5.20;1.90;;;15.50;99.90;;;;;;5043291;28;20262;-65
2022/06/02 11:58:58;;;;;;;3.60;2.27;;;15.50;99.90;;;;;;5042466;28;20289;-65
2022/06/02 12:02:09;;;;;;;4.13;2.03;;;15.70;99.90;;;;;;5040772;28;21245;-65
2022/06/02 12:05:14;;;;;;;5.53;2.40;;;16.20;99.90;;;;;;5039905;28;20244;-66
2022/06/02 12:08:21;;;;;;;5.03;1.93;;;17.00;99.90;;;;;;5042897;28;20232;-66
2022/06/02 12:11:27;;;;;;;3.07;2.00;;;17.20;99.90;;;;;;5028662;28;20231;-65
2022/06/02 12:14:21;;;;;;;2.20;1.70;;;17.10;99.90;;;;;;5041034;28;20241;-65
2022/06/02 12:17:04;;;;;;;3.73;2.03;;;17.20;99.90;;;;;;5029564;28;20692;-65
2022/06/02 12:20:02;;;;;;;5.00;2.17;;;17.40;99.90;;;;;;5033309;28;20311;-66
2022/06/02 12:23:05;;;;;;;3.60;1.70;;;18.00;99.90;;;;;;5042938;28;20236;-65
2022/06/02 12:26:33;;;;;;;4.50;1.80;;;18.30;99.90;;;;;;5011404;28;20280;-65
2022/06/02 12:29:10;;;;;;;5.80;1.60;;;18.00;99.90;;;;;;5042680;28;20248;-65
2022/06/02 12:32:10;;;;;;;4.77;1.80;;;17.70;99.90;;;;;;5036958;28;20239;-65
2022/06/02 12:35:23;;;;;;;4.43;1.50;;;17.40;99.90;;;;;;5042728;28;20703;-65
2022/06/02 12:38:43;;;;;;;3.47;1.83;;;17.20;99.90;;;;;;5034252;28;20224;-65
2022/06/02 12:41:42;;;;;;;4.37;2.00;;;17.10;99.90;;;;;;5027026;28;20228;-66
2022/06/02 12:44:40;;;;;;;3.43;1.50;;;17.30;99.90;;;;;;5038435;28;20750;-65
2022/06/02 12:47:38;;;;;;;5.63;1.80;;;17.30;99.90;;;;;;5044462;28;20224;-65
2022/06/02 12:50:35;;;;;;;3.83;2.13;;;17.30;99.90;;;;;;5044241;28;20271;-65
2022/06/02 12:53:48;;;;;;;2.97;1.90;;;17.60;99.90;;;;;;5043305;28;20767;-65
2022/06/02 12:56:34;;;;;;;5.17;1.80;;;17.80;99.90;;;;;;5043717;28;20240;-65
2022/06/02 12:59:44;;;;;;;3.50;1.73;;;17.80;99.90;;;;;;5043098;28;20241;-65
2022/06/02 13:02:23;;;;;;;4.17;1.57;;;18.30;99.90;;;;;;5010842;28;20326;-65
2022/06/02 13:05:35;;;;;;;4.20;1.60;;;18.60;99.90;;;;;;5042372;28;20237;-65
2022/06/02 13:08:42;;;;;;;4.43;1.73;;;18.80;99.90;;;;;;5019299;28;20237;-65
2022/06/02 13:11:39;;;;;;;4.40;1.70;;;18.60;99.90;;;;;;5044624;28;20234;-64
2022/06/02 13:14:34;;;;;;;2.27;1.47;;;18.30;99.90;;;;;;5010028;28;20706;-65
2022/06/02 13:17:30;;;;;;;4.43;1.67;;;18.00;99.90;;;;;;5015172;28;20432;-65
2022/06/02 13:20:31;;;;;;;2.80;1.30;;;17.90;99.90;;;;;;5042160;28;20243;-65
2022/06/02 13:23:24;;;;;;;3.63;1.50;;;17.80;99.90;;;;;;5043398;28;20228;-65
2022/06/02 13:26:32;;;;;;;5.60;1.50;;;17.90;99.90;;;;;;5043681;28;20237;-65
2022/06/02 13:29:26;;;;;;;2.63;1.40;;;18.10;99.90;;;;;;5039587;28;20232;-64
2022/06/02 13:32:31;;;;;;;4.20;1.63;;;18.10;99.90;;;;;;5042165;28;20323;-65
2022/06/02 13:35:36;;;;;;;3.50;1.47;;;18.20;99.90;;;;;;5022000;28;20311;-65
2022/06/02 13:38:33;;;;;;;3.87;1.60;;;18.00;99.90;;;;;;5022799;28;20236;-64
2022/06/02 13:41:29;;;;;;;3.90;1.80;;;18.10;99.90;;;;;;5022724;28;20230;-65
2022/06/02 13:44:20;;;;;;;4.00;1.73;;;18.10;99.90;;;;;;5022406;28;20231;-65
2022/06/02 13:47:30;;;;;;;3.50;1.40;;;18.30;99.90;;;;;;5021813;28;20265;-64
2022/06/02 13:50:30;;;;;;;3.43;1.60;;;18.40;99.90;;;;;;5022985;28;20226;-65
2022/06/02 13:59:54;;;;;;;2.83;1.47;;;17.90;99.90;;;;;;5023089;28;20320;-65
2022/06/02 14:02:58;;;;;;;2.10;1.60;;;17.90;99.90;;;;;;5021458;28;20426;-65
2022/06/02 14:05:52;;;;;;;2.63;1.50;;;17.90;99.90;;;;;;5021639;28;20738;-65
2022/06/02 14:08:59;;;;;;;3.90;1.70;;;18.00;99.90;;;;;;5023419;28;20247;-65
2022/06/02 14:11:50;;;;;;;3.30;1.60;;;18.10;99.90;;;;;;5010018;28;20624;-65
2022/06/02 14:14:44;;;;;;;3.87;1.90;;;18.20;99.90;;;;;;5021588;28;20233;-65
2022/06/02 14:17:24;;;;;;;4.03;1.70;;;18.00;99.90;;;;;;5003976;28;20823;-65
2022/06/02 14:20:13;;;;;;;3.07;1.83;;;18.00;99.90;;;;;;5023031;28;20921;-65
2022/06/02 14:22:54;;;;;;;4.27;1.50;;;18.00;99.90;;;;;;5022695;28;20256;-65
2022/06/02 14:25:31;;;;;;;3.60;1.70;;;18.10;99.90;;;;;;5021672;28;20270;-65
2022/06/02 14:28:34;;;;;;;3.80;1.80;;;18.20;99.90;;;;;;5022706;28;20234;-65
2022/06/02 14:31:07;;;;;;;2.63;1.50;;;18.20;99.90;;;;;;5007863;28;20296;-65
2022/06/02 14:33:37;;;;;;;4.27;1.37;;;18.30;99.90;;;;;;5021315;28;20232;-65
2022/06/02 14:36:21;;;;;;;2.37;1.40;;;18.30;99.90;;;;;;5022488;28;20698;-65
2022/06/02 14:39:00;;;;;;;3.90;1.60;;;18.20;99.90;;;;;;5022671;28;20241;-65
2022/06/02 14:41:30;;;;;;;3.53;1.60;;;18.10;99.90;;;;;;5022239;28;20694;-65
2022/06/02 14:44:15;;;;;;;4.87;1.50;;;17.90;99.90;;;;;;5021000;28;20307;-65
2022/06/02 14:47:05;;;;;;;4.83;1.80;;;18.00;99.90;;;;;;5022641;28;20272;-65
2022/06/02 14:50:07;;;;;;;4.07;1.73;;;18.00;99.90;;;;;;5022236;28;20732;-65